sensor_id;sensor_type;location;lat;lon;timestamp;temperature;humidity
13488;DHT22;6816;48.506;9.050;2022-08-01T00:02:53;21.40;69.50
13488;DHT22;6816;48.506;9.050;2022-08-01T00:05:53;21.30;69.70
13488;DHT22;6816;48.506;9.050;2022-08-01T00:08:54;21.30;70.00
13488;DHT22;6816;48.506;9.050;2022-08-01T00:11:55;21.20;70.00
13488;DHT22;6816;48.506;9.050;2022-08-01T00:14:56;21.20;70.30
13488;DHT22;6816;48.506;9.050;2022-08-01T00:17:57;21.10;70.50
13488;DHT22;6816;48.506;9.050;2022-08-01T00:20:57;21.10;70.60
13488;DHT22;6816;48.506;9.050;2022-08-01T00:23:58;21.00;70.80
13488;DHT22;6816;48.506;9.050;2022-08-01T00:26:59;21.00;70.90
13488;DHT22;6816;48.506;9.050;2022-08-01T00:30:00;21.00;71.10
13488;DHT22;6816;48.506;9.050;2022-08-01T00:33:01;20.90;71.00
13488;DHT22;6816;48.506;9.050;2022-08-01T00:36:02;20.80;71.10
13488;DHT22;6816;48.506;9.050;2022-08-01T00:39:03;20.80;71.30
13488;DHT22;6816;48.506;9.050;2022-08-01T00:42:10;20.70;71.30
13488;DHT22;6816;48.506;9.050;2022-08-01T00:45:11;20.70;71.70
13488;DHT22;6816;48.506;9.050;2022-08-01T00:48:12;20.60;71.60
13488;DHT22;6816;48.506;9.050;2022-08-01T00:51:13;20.50;71.70
13488;DHT22;6816;48.506;9.050;2022-08-01T00:54:15;20.40;71.90
13488;DHT22;6816;48.506;9.050;2022-08-01T00:57:16;20.40;72.20
13488;DHT22;6816;48.506;9.050;2022-08-01T01:00:17;20.30;72.50
13488;DHT22;6816;48.506;9.050;2022-08-01T01:03:17;20.20;72.70
13488;DHT22;6816;48.506;9.050;2022-08-01T01:06:40;20.20;73.00
13488;DHT22;6816;48.506;9.050;2022-08-01T01:13:19;20.20;74.00
13488;DHT22;6816;48.506;9.050;2022-08-01T01:16:24;20.10;73.90
13488;DHT22;6816;48.506;9.050;2022-08-01T01:19:30;20.10;73.70
13488;DHT22;6816;48.506;9.050;2022-08-01T01:25:44;20.10;73.90
13488;DHT22;6816;48.506;9.050;2022-08-01T01:29:06;20.00;74.00
13488;DHT22;6816;48.506;9.050;2022-08-01T01:32:41;20.00;74.60
13488;DHT22;6816;48.506;9.050;2022-08-01T01:35:47;20.00;74.70
13488;DHT22;6816;48.506;9.050;2022-08-01T01:38:50;19.90;74.40
13488;DHT22;6816;48.506;9.050;2022-08-01T01:41:52;19.90;74.40
13488;DHT22;6816;48.506;9.050;2022-08-01T01:44:54;19.80;74.30
13488;DHT22;6816;48.506;9.050;2022-08-01T01:47:56;19.80;74.40
13488;DHT22;6816;48.506;9.050;2022-08-01T01:50:59;19.70;74.50
13488;DHT22;6816;48.506;9.050;2022-08-01T01:54:01;19.60;74.50
13488;DHT22;6816;48.506;9.050;2022-08-01T01:57:03;19.60;74.60
13488;DHT22;6816;48.506;9.050;2022-08-01T02:00:05;19.50;74.60
13488;DHT22;6816;48.506;9.050;2022-08-01T02:03:11;19.40;74.80
13488;DHT22;6816;48.506;9.050;2022-08-01T02:06:13;19.40;75.20
13488;DHT22;6816;48.506;9.050;2022-08-01T02:09:17;19.30;75.30
13488;DHT22;6816;48.506;9.050;2022-08-01T02:12:19;19.30;75.60
13488;DHT22;6816;48.506;9.050;2022-08-01T02:15:22;19.20;75.50
13488;DHT22;6816;48.506;9.050;2022-08-01T02:18:24;19.10;75.60
13488;DHT22;6816;48.506;9.050;2022-08-01T02:21:29;19.10;75.70
13488;DHT22;6816;48.506;9.050;2022-08-01T02:24:56;19.00;76.00
13488;DHT22;6816;48.506;9.050;2022-08-01T02:28:05;19.00;76.40
13488;DHT22;6816;48.506;9.050;2022-08-01T02:31:10;19.00;76.60
13488;DHT22;6816;48.506;9.050;2022-08-01T02:34:17;18.90;76.50
13488;DHT22;6816;48.506;9.050;2022-08-01T02:37:19;18.90;76.70
13488;DHT22;6816;48.506;9.050;2022-08-01T02:40:21;18.80;76.70
13488;DHT22;6816;48.506;9.050;2022-08-01T02:43:24;18.80;76.80
13488;DHT22;6816;48.506;9.050;2022-08-01T02:46:34;18.70;77.00
13488;DHT22;6816;48.506;9.050;2022-08-01T02:49:41;18.70;77.40
13488;DHT22;6816;48.506;9.050;2022-08-01T02:52:45;18.60;77.30
13488;DHT22;6816;48.506;9.050;2022-08-01T02:55:48;18.60;77.30
13488;DHT22;6816;48.506;9.050;2022-08-01T02:58:51;18.50;77.40
13488;DHT22;6816;48.506;9.050;2022-08-01T03:01:54;18.50;77.60
13488;DHT22;6816;48.506;9.050;2022-08-01T03:04:57;18.40;77.70
13488;DHT22;6816;48.506;9.050;2022-08-01T03:07:59;18.40;77.80
13488;DHT22;6816;48.506;9.050;2022-08-01T03:11:01;18.40;77.80
13488;DHT22;6816;48.506;9.050;2022-08-01T03:14:07;18.30;78.00
13488;DHT22;6816;48.506;9.050;2022-08-01T03:17:09;18.30;78.40
13488;DHT22;6816;48.506;9.050;2022-08-01T03:20:14;18.30;78.30
13488;DHT22;6816;48.506;9.050;2022-08-01T03:23:15;18.30;78.50
13488;DHT22;6816;48.506;9.050;2022-08-01T03:26:17;18.30;78.70
13488;DHT22;6816;48.506;9.050;2022-08-01T03:29:24;18.20;78.70
13488;DHT22;6816;48.506;9.050;2022-08-01T03:32:27;18.20;79.10
13488;DHT22;6816;48.506;9.050;2022-08-01T03:35:35;18.20;78.90
13488;DHT22;6816;48.506;9.050;2022-08-01T03:38:39;18.20;78.90
13488;DHT22;6816;48.506;9.050;2022-08-01T03:41:43;18.10;78.80
13488;DHT22;6816;48.506;9.050;2022-08-01T03:44:52;18.10;78.90
13488;DHT22;6816;48.506;9.050;2022-08-01T03:48:03;18.10;79.00
13488;DHT22;6816;48.506;9.050;2022-08-01T03:51:05;18.00;79.40
13488;DHT22;6816;48.506;9.050;2022-08-01T03:54:08;18.00;79.20
13488;DHT22;6816;48.506;9.050;2022-08-01T03:57:10;18.00;79.40
13488;DHT22;6816;48.506;9.050;2022-08-01T04:00:12;17.90;79.30
13488;DHT22;6816;48.506;9.050;2022-08-01T04:03:13;17.90;79.40
13488;DHT22;6816;48.506;9.050;2022-08-01T04:06:14;17.80;79.60
13488;DHT22;6816;48.506;9.050;2022-08-01T04:09:16;17.80;79.70
13488;DHT22;6816;48.506;9.050;2022-08-01T04:12:17;17.80;79.80
13488;DHT22;6816;48.506;9.050;2022-08-01T04:15:18;17.80;79.90
13488;DHT22;6816;48.506;9.050;2022-08-01T04:18:20;17.80;80.00
13488;DHT22;6816;48.506;9.050;2022-08-01T04:21:25;17.70;80.90
13488;DHT22;6816;48.506;9.050;2022-08-01T04:24:29;17.70;80.50
13488;DHT22;6816;48.506;9.050;2022-08-01T04:27:34;17.70;80.50
13488;DHT22;6816;48.506;9.050;2022-08-01T04:30:36;17.70;80.70
13488;DHT22;6816;48.506;9.050;2022-08-01T04:33:45;17.70;80.90
13488;DHT22;6816;48.506;9.050;2022-08-01T04:36:47;17.70;81.50
13488;DHT22;6816;48.506;9.050;2022-08-01T04:39:51;17.70;81.40
13488;DHT22;6816;48.506;9.050;2022-08-01T04:42:53;17.70;81.70
13488;DHT22;6816;48.506;9.050;2022-08-01T04:45:54;17.70;81.60
13488;DHT22;6816;48.506;9.050;2022-08-01T04:48:56;17.80;81.70
13488;DHT22;6816;48.506;9.050;2022-08-01T04:51:57;17.80;81.70
13488;DHT22;6816;48.506;9.050;2022-08-01T04:54:57;17.80;81.60
13488;DHT22;6816;48.506;9.050;2022-08-01T04:57:58;17.80;81.70
13488;DHT22;6816;48.506;9.050;2022-08-01T05:00:59;17.80;81.70
13488;DHT22;6816;48.506;9.050;2022-08-01T05:03:59;17.80;81.80
13488;DHT22;6816;48.506;9.050;2022-08-01T05:07:00;17.80;82.00
13488;DHT22;6816;48.506;9.050;2022-08-01T05:10:02;17.80;82.20
13488;DHT22;6816;48.506;9.050;2022-08-01T05:13:03;17.80;82.50
13488;DHT22;6816;48.506;9.050;2022-08-01T05:16:04;17.90;82.80
13488;DHT22;6816;48.506;9.050;2022-08-01T05:19:04;18.00;83.30
13488;DHT22;6816;48.506;9.050;2022-08-01T05:22:06;18.10;83.70
13488;DHT22;6816;48.506;9.050;2022-08-01T05:25:07;18.20;84.20
13488;DHT22;6816;48.506;9.050;2022-08-01T05:28:08;18.40;84.30
13488;DHT22;6816;48.506;9.050;2022-08-01T05:31:09;18.60;84.20
13488;DHT22;6816;48.506;9.050;2022-08-01T05:34:09;18.80;83.70
13488;DHT22;6816;48.506;9.050;2022-08-01T05:37:10;19.00;83.30
13488;DHT22;6816;48.506;9.050;2022-08-01T05:40:11;19.10;82.90
13488;DHT22;6816;48.506;9.050;2022-08-01T05:43:15;19.20;82.60
13488;DHT22;6816;48.506;9.050;2022-08-01T05:46:16;19.30;82.60
13488;DHT22;6816;48.506;9.050;2022-08-01T05:49:17;19.30;82.30
13488;DHT22;6816;48.506;9.050;2022-08-01T05:52:17;19.50;82.40
13488;DHT22;6816;48.506;9.050;2022-08-01T05:55:18;19.60;82.30
13488;DHT22;6816;48.506;9.050;2022-08-01T05:58:19;19.80;82.70
13488;DHT22;6816;48.506;9.050;2022-08-01T06:01:19;19.90;82.60
13488;DHT22;6816;48.506;9.050;2022-08-01T06:04:20;20.20;82.30
13488;DHT22;6816;48.506;9.050;2022-08-01T06:07:21;20.30;81.70
13488;DHT22;6816;48.506;9.050;2022-08-01T06:10:22;20.50;81.30
13488;DHT22;6816;48.506;9.050;2022-08-01T06:13:22;20.70;81.40
13488;DHT22;6816;48.506;9.050;2022-08-01T06:16:23;20.80;81.10
13488;DHT22;6816;48.506;9.050;2022-08-01T06:19:24;21.00;80.90
13488;DHT22;6816;48.506;9.050;2022-08-01T06:22:26;21.30;81.00
13488;DHT22;6816;48.506;9.050;2022-08-01T06:25:27;21.50;80.50
13488;DHT22;6816;48.506;9.050;2022-08-01T06:28:28;21.80;80.30
13488;DHT22;6816;48.506;9.050;2022-08-01T06:31:28;22.00;79.80
13488;DHT22;6816;48.506;9.050;2022-08-01T06:34:29;22.20;79.50
13488;DHT22;6816;48.506;9.050;2022-08-01T06:37:31;22.40;78.80
13488;DHT22;6816;48.506;9.050;2022-08-01T06:40:31;22.60;78.20
13488;DHT22;6816;48.506;9.050;2022-08-01T06:43:32;22.70;77.70
13488;DHT22;6816;48.506;9.050;2022-08-01T06:46:34;22.70;77.20
13488;DHT22;6816;48.506;9.050;2022-08-01T06:49:35;22.80;77.10
13488;DHT22;6816;48.506;9.050;2022-08-01T06:52:36;22.70;77.00
13488;DHT22;6816;48.506;9.050;2022-08-01T06:55:37;22.70;76.90
13488;DHT22;6816;48.506;9.050;2022-08-01T06:58:37;22.70;76.80
13488;DHT22;6816;48.506;9.050;2022-08-01T07:01:38;22.70;76.80
13488;DHT22;6816;48.506;9.050;2022-08-01T07:04:39;22.60;76.70
13488;DHT22;6816;48.506;9.050;2022-08-01T07:07:39;22.60;76.60
13488;DHT22;6816;48.506;9.050;2022-08-01T07:10:40;22.70;76.70
13488;DHT22;6816;48.506;9.050;2022-08-01T07:13:41;22.80;76.90
13488;DHT22;6816;48.506;9.050;2022-08-01T07:16:41;22.90;77.60
13488;DHT22;6816;48.506;9.050;2022-08-01T07:19:42;23.10;76.80
13488;DHT22;6816;48.506;9.050;2022-08-01T07:22:43;23.30;76.40
13488;DHT22;6816;48.506;9.050;2022-08-01T07:25:44;23.50;76.10
13488;DHT22;6816;48.506;9.050;2022-08-01T07:28:44;23.70;75.30
13488;DHT22;6816;48.506;9.050;2022-08-01T07:31:45;23.90;75.30
13488;DHT22;6816;48.506;9.050;2022-08-01T07:34:45;24.10;75.20
13488;DHT22;6816;48.506;9.050;2022-08-01T07:37:46;24.30;74.70
13488;DHT22;6816;48.506;9.050;2022-08-01T07:40:47;24.50;74.30
13488;DHT22;6816;48.506;9.050;2022-08-01T07:43:48;24.70;74.70
13488;DHT22;6816;48.506;9.050;2022-08-01T07:46:49;24.90;74.30
13488;DHT22;6816;48.506;9.050;2022-08-01T07:49:50;25.10;73.10
13488;DHT22;6816;48.506;9.050;2022-08-01T07:52:51;25.30;72.70
13488;DHT22;6816;48.506;9.050;2022-08-01T07:55:51;25.50;72.30
13488;DHT22;6816;48.506;9.050;2022-08-01T07:58:52;25.70;72.70
13488;DHT22;6816;48.506;9.050;2022-08-01T08:01:53;25.90;71.70
13488;DHT22;6816;48.506;9.050;2022-08-01T08:04:53;26.10;71.20
13488;DHT22;6816;48.506;9.050;2022-08-01T08:07:54;26.30;71.20
13488;DHT22;6816;48.506;9.050;2022-08-01T08:10:55;26.40;70.70
13488;DHT22;6816;48.506;9.050;2022-08-01T08:13:56;26.60;69.90
13488;DHT22;6816;48.506;9.050;2022-08-01T08:16:56;26.80;69.50
13488;DHT22;6816;48.506;9.050;2022-08-01T08:19:57;27.00;69.20
13488;DHT22;6816;48.506;9.050;2022-08-01T08:22:58;27.10;68.70
13488;DHT22;6816;48.506;9.050;2022-08-01T08:25:59;27.30;68.20
13488;DHT22;6816;48.506;9.050;2022-08-01T08:29:00;27.40;67.40
13488;DHT22;6816;48.506;9.050;2022-08-01T08:32:01;27.70;67.00
13488;DHT22;6816;48.506;9.050;2022-08-01T08:35:01;27.80;66.50
13488;DHT22;6816;48.506;9.050;2022-08-01T08:38:02;28.00;67.00
13488;DHT22;6816;48.506;9.050;2022-08-01T08:41:03;28.10;65.50
13488;DHT22;6816;48.506;9.050;2022-08-01T08:44:06;28.30;65.00
13488;DHT22;6816;48.506;9.050;2022-08-01T08:47:08;28.40;65.20
13488;DHT22;6816;48.506;9.050;2022-08-01T08:50:11;28.60;64.80
13488;DHT22;6816;48.506;9.050;2022-08-01T08:53:13;28.70;63.60
13488;DHT22;6816;48.506;9.050;2022-08-01T08:56:14;28.80;62.50
13488;DHT22;6816;48.506;9.050;2022-08-01T08:59:14;28.90;62.60
13488;DHT22;6816;48.506;9.050;2022-08-01T09:02:15;28.90;62.90
13488;DHT22;6816;48.506;9.050;2022-08-01T09:05:16;29.00;62.90
13488;DHT22;6816;48.506;9.050;2022-08-01T09:08:17;29.10;62.20
13488;DHT22;6816;48.506;9.050;2022-08-01T09:11:18;29.20;61.70
13488;DHT22;6816;48.506;9.050;2022-08-01T09:14:19;29.20;61.30
13488;DHT22;6816;48.506;9.050;2022-08-01T09:17:24;29.30;61.10
13488;DHT22;6816;48.506;9.050;2022-08-01T09:20:25;29.40;60.80
13488;DHT22;6816;48.506;9.050;2022-08-01T09:23:54;29.40;60.90
13488;DHT22;6816;48.506;9.050;2022-08-01T09:26:58;29.50;59.40
13488;DHT22;6816;48.506;9.050;2022-08-01T09:30:16;29.60;61.60
13488;DHT22;6816;48.506;9.050;2022-08-01T09:33:16;29.70;58.60
13488;DHT22;6816;48.506;9.050;2022-08-01T09:36:18;29.80;60.10
13488;DHT22;6816;48.506;9.050;2022-08-01T09:39:20;30.00;59.80
13488;DHT22;6816;48.506;9.050;2022-08-01T09:42:23;30.10;59.50
13488;DHT22;6816;48.506;9.050;2022-08-01T09:45:34;30.30;59.10
13488;DHT22;6816;48.506;9.050;2022-08-01T09:48:35;30.40;57.90
13488;DHT22;6816;48.506;9.050;2022-08-01T09:51:38;30.50;58.60
13488;DHT22;6816;48.506;9.050;2022-08-01T09:54:40;30.70;58.40
13488;DHT22;6816;48.506;9.050;2022-08-01T09:57:55;30.90;58.20
13488;DHT22;6816;48.506;9.050;2022-08-01T10:00:59;31.10;56.60
13488;DHT22;6816;48.506;9.050;2022-08-01T10:04:16;31.30;57.00
13488;DHT22;6816;48.506;9.050;2022-08-01T10:07:18;31.40;55.80
13488;DHT22;6816;48.506;9.050;2022-08-01T10:10:19;31.60;57.00
13488;DHT22;6816;48.506;9.050;2022-08-01T10:13:20;31.70;56.40
13488;DHT22;6816;48.506;9.050;2022-08-01T10:16:21;31.80;55.80
13488;DHT22;6816;48.506;9.050;2022-08-01T10:19:23;31.80;55.00
13488;DHT22;6816;48.506;9.050;2022-08-01T10:22:24;31.80;54.80
13488;DHT22;6816;48.506;9.050;2022-08-01T10:25:35;31.70;54.80
13488;DHT22;6816;48.506;9.050;2022-08-01T10:28:38;31.70;53.00
13488;DHT22;6816;48.506;9.050;2022-08-01T10:31:39;31.60;54.30
13488;DHT22;6816;48.506;9.050;2022-08-01T10:34:40;31.50;54.40
13488;DHT22;6816;48.506;9.050;2022-08-01T10:37:40;31.30;54.60
13488;DHT22;6816;48.506;9.050;2022-08-01T10:40:42;31.10;54.30
13488;DHT22;6816;48.506;9.050;2022-08-01T10:43:43;31.00;54.00
13488;DHT22;6816;48.506;9.050;2022-08-01T10:46:48;30.90;54.00
13488;DHT22;6816;48.506;9.050;2022-08-01T10:49:56;30.90;54.40
13488;DHT22;6816;48.506;9.050;2022-08-01T10:53:19;30.90;54.70
13488;DHT22;6816;48.506;9.050;2022-08-01T10:56:21;30.90;53.80
13488;DHT22;6816;48.506;9.050;2022-08-01T10:59:25;30.90;54.80
13488;DHT22;6816;48.506;9.050;2022-08-01T11:02:32;30.90;54.50
13488;DHT22;6816;48.506;9.050;2022-08-01T11:05:35;30.90;53.60
13488;DHT22;6816;48.506;9.050;2022-08-01T11:08:36;30.80;53.60
13488;DHT22;6816;48.506;9.050;2022-08-01T11:12:00;30.80;53.30
13488;DHT22;6816;48.506;9.050;2022-08-01T11:18:34;30.70;53.20
13488;DHT22;6816;48.506;9.050;2022-08-01T11:24:57;30.60;52.80
13488;DHT22;6816;48.506;9.050;2022-08-01T11:34:16;30.70;53.60
13488;DHT22;6816;48.506;9.050;2022-08-01T11:37:27;30.70;53.00
13488;DHT22;6816;48.506;9.050;2022-08-01T11:40:28;30.70;52.40
13488;DHT22;6816;48.506;9.050;2022-08-01T11:43:29;30.70;53.10
13488;DHT22;6816;48.506;9.050;2022-08-01T11:49:49;30.60;52.30
13488;DHT22;6816;48.506;9.050;2022-08-01T11:53:01;30.50;53.10
13488;DHT22;6816;48.506;9.050;2022-08-01T11:56:02;30.40;52.90
13488;DHT22;6816;48.506;9.050;2022-08-01T11:59:03;30.30;53.10
13488;DHT22;6816;48.506;9.050;2022-08-01T12:02:04;30.20;53.00
13488;DHT22;6816;48.506;9.050;2022-08-01T12:05:16;30.10;53.20
13488;DHT22;6816;48.506;9.050;2022-08-01T12:08:27;30.00;53.60
13488;DHT22;6816;48.506;9.050;2022-08-01T12:11:28;30.00;53.80
13488;DHT22;6816;48.506;9.050;2022-08-01T12:14:29;30.00;54.10
13488;DHT22;6816;48.506;9.050;2022-08-01T12:17:35;30.00;54.00
13488;DHT22;6816;48.506;9.050;2022-08-01T12:20:41;30.10;53.70
13488;DHT22;6816;48.506;9.050;2022-08-01T12:23:42;30.30;53.70
13488;DHT22;6816;48.506;9.050;2022-08-01T12:26:43;30.40;53.70
13488;DHT22;6816;48.506;9.050;2022-08-01T12:29:43;30.50;53.40
13488;DHT22;6816;48.506;9.050;2022-08-01T12:32:46;30.60;53.30
13488;DHT22;6816;48.506;9.050;2022-08-01T12:35:47;30.80;53.30
13488;DHT22;6816;48.506;9.050;2022-08-01T12:38:52;30.90;53.10
13488;DHT22;6816;48.506;9.050;2022-08-01T12:41:53;30.90;52.40
13488;DHT22;6816;48.506;9.050;2022-08-01T12:44:54;31.00;52.80
13488;DHT22;6816;48.506;9.050;2022-08-01T12:47:55;31.10;52.30
13488;DHT22;6816;48.506;9.050;2022-08-01T12:50:59;31.10;52.00
13488;DHT22;6816;48.506;9.050;2022-08-01T12:54:02;31.20;51.80
13488;DHT22;6816;48.506;9.050;2022-08-01T12:57:04;31.30;51.70
13488;DHT22;6816;48.506;9.050;2022-08-01T13:03:20;31.30;51.40
13488;DHT22;6816;48.506;9.050;2022-08-01T13:06:20;31.50;51.20
13488;DHT22;6816;48.506;9.050;2022-08-01T13:09:21;31.60;51.70
13488;DHT22;6816;48.506;9.050;2022-08-01T13:12:22;31.70;51.70
13488;DHT22;6816;48.506;9.050;2022-08-01T13:15:33;31.70;51.60
13488;DHT22;6816;48.506;9.050;2022-08-01T13:18:35;31.80;51.40
13488;DHT22;6816;48.506;9.050;2022-08-01T13:21:36;31.90;51.50
13488;DHT22;6816;48.506;9.050;2022-08-01T13:24:37;31.90;51.50
13488;DHT22;6816;48.506;9.050;2022-08-01T13:27:38;31.90;51.20
13488;DHT22;6816;48.506;9.050;2022-08-01T13:30:38;31.90;51.10
13488;DHT22;6816;48.506;9.050;2022-08-01T13:33:44;31.90;51.30
13488;DHT22;6816;48.506;9.050;2022-08-01T13:36:45;32.00;51.10
13488;DHT22;6816;48.506;9.050;2022-08-01T13:39:46;32.00;51.40
13488;DHT22;6816;48.506;9.050;2022-08-01T13:42:47;32.10;51.50
13488;DHT22;6816;48.506;9.050;2022-08-01T13:45:49;32.20;51.50
13488;DHT22;6816;48.506;9.050;2022-08-01T13:48:50;32.30;50.90
13488;DHT22;6816;48.506;9.050;2022-08-01T13:51:50;32.40;50.40
13488;DHT22;6816;48.506;9.050;2022-08-01T13:54:51;32.50;50.00
13488;DHT22;6816;48.506;9.050;2022-08-01T13:57:52;32.50;49.10
13488;DHT22;6816;48.506;9.050;2022-08-01T14:00:52;32.50;49.00
13488;DHT22;6816;48.506;9.050;2022-08-01T14:03:53;32.60;48.80
13488;DHT22;6816;48.506;9.050;2022-08-01T14:06:53;32.50;49.10
13488;DHT22;6816;48.506;9.050;2022-08-01T14:09:54;32.50;49.20
13488;DHT22;6816;48.506;9.050;2022-08-01T14:12:55;32.50;49.70
13488;DHT22;6816;48.506;9.050;2022-08-01T14:15:57;32.30;49.40
13488;DHT22;6816;48.506;9.050;2022-08-01T14:18:58;32.30;49.30
13488;DHT22;6816;48.506;9.050;2022-08-01T14:21:59;32.20;49.40
13488;DHT22;6816;48.506;9.050;2022-08-01T14:24:59;32.10;50.20
13488;DHT22;6816;48.506;9.050;2022-08-01T14:28:00;32.00;49.50
13488;DHT22;6816;48.506;9.050;2022-08-01T14:31:01;32.00;49.80
13488;DHT22;6816;48.506;9.050;2022-08-01T14:34:01;31.90;50.00
13488;DHT22;6816;48.506;9.050;2022-08-01T14:37:02;31.90;50.50
13488;DHT22;6816;48.506;9.050;2022-08-01T14:40:03;32.00;50.60
13488;DHT22;6816;48.506;9.050;2022-08-01T14:43:07;32.20;50.50
13488;DHT22;6816;48.506;9.050;2022-08-01T14:46:08;32.20;50.00
13488;DHT22;6816;48.506;9.050;2022-08-01T14:49:10;32.20;50.00
13488;DHT22;6816;48.506;9.050;2022-08-01T14:52:11;32.30;49.90
13488;DHT22;6816;48.506;9.050;2022-08-01T14:55:12;32.30;49.60
13488;DHT22;6816;48.506;9.050;2022-08-01T14:58:13;32.40;49.70
13488;DHT22;6816;48.506;9.050;2022-08-01T15:01:13;32.40;49.40
13488;DHT22;6816;48.506;9.050;2022-08-01T15:04:14;32.50;49.30
13488;DHT22;6816;48.506;9.050;2022-08-01T15:07:16;32.50;49.10
13488;DHT22;6816;48.506;9.050;2022-08-01T15:10:17;32.60;48.70
13488;DHT22;6816;48.506;9.050;2022-08-01T15:13:18;32.50;49.00
13488;DHT22;6816;48.506;9.050;2022-08-01T15:16:18;32.50;49.70
13488;DHT22;6816;48.506;9.050;2022-08-01T15:19:19;32.50;50.30
13488;DHT22;6816;48.506;9.050;2022-08-01T15:22:20;32.50;50.40
13488;DHT22;6816;48.506;9.050;2022-08-01T15:25:21;32.60;50.30
13488;DHT22;6816;48.506;9.050;2022-08-01T15:28:22;32.60;49.90
13488;DHT22;6816;48.506;9.050;2022-08-01T15:31:23;32.60;49.70
13488;DHT22;6816;48.506;9.050;2022-08-01T15:34:24;32.50;49.90
13488;DHT22;6816;48.506;9.050;2022-08-01T15:37:25;32.40;49.90
13488;DHT22;6816;48.506;9.050;2022-08-01T15:40:26;32.30;50.20
13488;DHT22;6816;48.506;9.050;2022-08-01T15:43:28;32.30;51.00
13488;DHT22;6816;48.506;9.050;2022-08-01T15:46:29;32.20;50.40
13488;DHT22;6816;48.506;9.050;2022-08-01T15:49:30;32.20;50.40
13488;DHT22;6816;48.506;9.050;2022-08-01T15:52:31;32.00;50.30
13488;DHT22;6816;48.506;9.050;2022-08-01T15:55:35;31.90;50.30
13488;DHT22;6816;48.506;9.050;2022-08-01T15:58:37;31.80;50.50
13488;DHT22;6816;48.506;9.050;2022-08-01T16:01:38;31.60;50.70
13488;DHT22;6816;48.506;9.050;2022-08-01T16:04:38;31.40;51.10
13488;DHT22;6816;48.506;9.050;2022-08-01T16:07:39;31.30;51.40
13488;DHT22;6816;48.506;9.050;2022-08-01T16:10:40;31.10;51.80
13488;DHT22;6816;48.506;9.050;2022-08-01T16:13:42;31.00;52.00
13488;DHT22;6816;48.506;9.050;2022-08-01T16:16:43;30.90;52.30
13488;DHT22;6816;48.506;9.050;2022-08-01T16:19:43;30.80;52.40
13488;DHT22;6816;48.506;9.050;2022-08-01T16:22:44;30.70;52.60
13488;DHT22;6816;48.506;9.050;2022-08-01T16:25:45;30.70;52.60
13488;DHT22;6816;48.506;9.050;2022-08-01T16:28:45;30.50;52.80
13488;DHT22;6816;48.506;9.050;2022-08-01T16:31:47;30.40;53.10
13488;DHT22;6816;48.506;9.050;2022-08-01T16:34:48;30.30;53.20
13488;DHT22;6816;48.506;9.050;2022-08-01T16:37:48;30.30;53.70
13488;DHT22;6816;48.506;9.050;2022-08-01T16:40:50;30.20;53.90
13488;DHT22;6816;48.506;9.050;2022-08-01T16:43:51;30.10;55.00
13488;DHT22;6816;48.506;9.050;2022-08-01T16:46:51;30.00;54.90
13488;DHT22;6816;48.506;9.050;2022-08-01T16:49:52;30.00;55.70
13488;DHT22;6816;48.506;9.050;2022-08-01T16:52:53;29.90;55.80
13488;DHT22;6816;48.506;9.050;2022-08-01T16:55:53;29.80;56.80
13488;DHT22;6816;48.506;9.050;2022-08-01T16:58:54;29.60;57.80
13488;DHT22;6816;48.506;9.050;2022-08-01T17:01:55;29.50;58.50
13488;DHT22;6816;48.506;9.050;2022-08-01T17:04:55;29.30;59.00
13488;DHT22;6816;48.506;9.050;2022-08-01T17:07:56;29.20;59.00
13488;DHT22;6816;48.506;9.050;2022-08-01T17:10:56;29.10;59.50
13488;DHT22;6816;48.506;9.050;2022-08-01T17:13:57;28.90;59.60
13488;DHT22;6816;48.506;9.050;2022-08-01T17:16:58;28.80;59.60
13488;DHT22;6816;48.506;9.050;2022-08-01T17:19:59;28.60;60.20
13488;DHT22;6816;48.506;9.050;2022-08-01T17:22:59;28.50;60.40
13488;DHT22;6816;48.506;9.050;2022-08-01T17:26:00;28.40;61.70
13488;DHT22;6816;48.506;9.050;2022-08-01T17:29:01;28.30;61.70
13488;DHT22;6816;48.506;9.050;2022-08-01T17:32:02;28.20;62.10
13488;DHT22;6816;48.506;9.050;2022-08-01T17:35:03;28.10;62.90
13488;DHT22;6816;48.506;9.050;2022-08-01T17:38:03;28.00;63.50
13488;DHT22;6816;48.506;9.050;2022-08-01T17:41:04;27.80;64.20
13488;DHT22;6816;48.506;9.050;2022-08-01T17:44:05;27.80;64.90
13488;DHT22;6816;48.506;9.050;2022-08-01T17:47:06;27.60;65.40
13488;DHT22;6816;48.506;9.050;2022-08-01T17:50:10;27.50;65.90
13488;DHT22;6816;48.506;9.050;2022-08-01T17:53:11;27.40;67.00
13488;DHT22;6816;48.506;9.050;2022-08-01T17:56:12;27.30;67.90
13488;DHT22;6816;48.506;9.050;2022-08-01T17:59:13;27.10;68.50
13488;DHT22;6816;48.506;9.050;2022-08-01T18:02:13;27.10;69.20
13488;DHT22;6816;48.506;9.050;2022-08-01T18:05:14;27.00;69.30
13488;DHT22;6816;48.506;9.050;2022-08-01T18:08:15;26.90;69.80
13488;DHT22;6816;48.506;9.050;2022-08-01T18:11:16;26.80;70.40
13488;DHT22;6816;48.506;9.050;2022-08-01T18:14:16;26.70;70.80
13488;DHT22;6816;48.506;9.050;2022-08-01T18:17:17;26.60;71.30
13488;DHT22;6816;48.506;9.050;2022-08-01T18:20:18;26.50;71.60
13488;DHT22;6816;48.506;9.050;2022-08-01T18:23:18;26.40;72.00
13488;DHT22;6816;48.506;9.050;2022-08-01T18:26:20;26.30;72.30
13488;DHT22;6816;48.506;9.050;2022-08-01T18:29:21;26.20;72.70
13488;DHT22;6816;48.506;9.050;2022-08-01T18:32:23;26.10;73.40
13488;DHT22;6816;48.506;9.050;2022-08-01T18:35:24;25.90;73.70
13488;DHT22;6816;48.506;9.050;2022-08-01T18:38:25;25.80;74.20
13488;DHT22;6816;48.506;9.050;2022-08-01T18:41:27;25.60;74.80
13488;DHT22;6816;48.506;9.050;2022-08-01T18:44:31;25.50;75.30
13488;DHT22;6816;48.506;9.050;2022-08-01T18:47:32;25.40;76.80
13488;DHT22;6816;48.506;9.050;2022-08-01T18:50:33;25.30;76.00
13488;DHT22;6816;48.506;9.050;2022-08-01T18:53:34;25.10;76.10
13488;DHT22;6816;48.506;9.050;2022-08-01T18:56:35;25.00;76.80
13488;DHT22;6816;48.506;9.050;2022-08-01T18:59:35;24.90;77.40
13488;DHT22;6816;48.506;9.050;2022-08-01T19:02:36;24.80;78.10
13488;DHT22;6816;48.506;9.050;2022-08-01T19:05:37;24.60;78.90
13488;DHT22;6816;48.506;9.050;2022-08-01T19:08:38;24.50;79.50
13488;DHT22;6816;48.506;9.050;2022-08-01T19:11:39;24.40;80.00
13488;DHT22;6816;48.506;9.050;2022-08-01T19:14:40;24.30;80.30
13488;DHT22;6816;48.506;9.050;2022-08-01T19:17:40;24.10;80.70
13488;DHT22;6816;48.506;9.050;2022-08-01T19:20:41;24.10;81.20
13488;DHT22;6816;48.506;9.050;2022-08-01T19:23:44;23.90;82.40
13488;DHT22;6816;48.506;9.050;2022-08-01T19:27:05;24.00;82.20
13488;DHT22;6816;48.506;9.050;2022-08-01T19:30:08;23.70;82.70
13488;DHT22;6816;48.506;9.050;2022-08-01T19:33:09;23.60;83.20
13488;DHT22;6816;48.506;9.050;2022-08-01T19:36:14;23.50;83.50
13488;DHT22;6816;48.506;9.050;2022-08-01T19:39:18;23.40;84.50
13488;DHT22;6816;48.506;9.050;2022-08-01T19:42:23;23.40;84.60
13488;DHT22;6816;48.506;9.050;2022-08-01T19:45:27;23.30;85.30
13488;DHT22;6816;48.506;9.050;2022-08-01T19:48:29;23.20;86.30
13488;DHT22;6816;48.506;9.050;2022-08-01T19:51:31;23.20;86.20
13488;DHT22;6816;48.506;9.050;2022-08-01T19:54:37;23.10;87.10
13488;DHT22;6816;48.506;9.050;2022-08-01T19:57:40;23.10;88.30